sensor_id;sensor_type;location;lat;lon;timestamp;P1;durP1;ratioP1;P2;durP2;ratioP2
15317;SDS011;7759;52.528;13.346;2023-08-01T00:00:44;3.28;;;2.40;;
15317;SDS011;7759;52.528;13.346;2023-08-01T00:03:10;7.30;;;2.55;;
15317;SDS011;7759;52.528;13.346;2023-08-01T00:05:36;4.82;;;2.35;;
15317;SDS011;7759;52.528;13.346;2023-08-01T00:08:03;3.70;;;2.53;;
15317;SDS011;7759;52.528;13.346;2023-08-01T00:10:29;4.65;;;3.17;;
15317;SDS011;7759;52.528;13.346;2023-08-01T00:12:55;3.88;;;2.30;;
15317;SDS011;7759;52.528;13.346;2023-08-01T00:15:21;4.45;;;2.20;;
15317;SDS011;7759;52.528;13.346;2023-08-01T00:17:47;4.75;;;2.60;;
15317;SDS011;7759;52.528;13.346;2023-08-01T00:20:13;4.50;;;2.55;;
15317;SDS011;7759;52.528;13.346;2023-08-01T00:22:38;3.67;;;2.70;;
15317;SDS011;7759;52.528;13.346;2023-08-01T00:25:04;5.95;;;2.30;;
15317;SDS011;7759;52.528;13.346;2023-08-01T00:27:30;4.65;;;2.30;;
15317;SDS011;7759;52.528;13.346;2023-08-01T00:29:57;4.47;;;2.22;;
15317;SDS011;7759;52.528;13.346;2023-08-01T00:32:23;5.15;;;2.13;;
15317;SDS011;7759;52.528;13.346;2023-08-01T00:34:50;5.68;;;2.30;;
15317;SDS011;7759;52.528;13.346;2023-08-01T00:37:17;3.72;;;2.33;;
15317;SDS011;7759;52.528;13.346;2023-08-01T00:39:42;5.88;;;3.03;;
15317;SDS011;7759;52.528;13.346;2023-08-01T00:42:08;3.55;;;2.33;;
15317;SDS011;7759;52.528;13.346;2023-08-01T00:44:34;4.30;;;1.95;;
15317;SDS011;7759;52.528;13.346;2023-08-01T00:47:00;3.40;;;2.10;;
15317;SDS011;7759;52.528;13.346;2023-08-01T00:49:26;3.25;;;1.75;;
15317;SDS011;7759;52.528;13.346;2023-08-01T00:51:52;2.78;;;2.13;;
15317;SDS011;7759;52.528;13.346;2023-08-01T00:54:18;4.20;;;1.92;;
15317;SDS011;7759;52.528;13.346;2023-08-01T00:56:44;1.98;;;1.70;;
15317;SDS011;7759;52.528;13.346;2023-08-01T00:59:11;3.33;;;2.00;;
15317;SDS011;7759;52.528;13.346;2023-08-01T01:01:37;2.13;;;1.55;;
15317;SDS011;7759;52.528;13.346;2023-08-01T01:04:03;3.38;;;1.83;;
15317;SDS011;7759;52.528;13.346;2023-08-01T01:06:34;4.25;;;2.25;;
15317;SDS011;7759;52.528;13.346;2023-08-01T01:09:13;4.03;;;1.88;;
15317;SDS011;7759;52.528;13.346;2023-08-01T01:11:39;2.65;;;1.80;;
15317;SDS011;7759;52.528;13.346;2023-08-01T01:14:05;3.72;;;1.83;;
15317;SDS011;7759;52.528;13.346;2023-08-01T01:16:31;2.88;;;1.85;;
15317;SDS011;7759;52.528;13.346;2023-08-01T01:18:57;2.20;;;2.00;;
15317;SDS011;7759;52.528;13.346;2023-08-01T01:21:23;2.05;;;1.80;;
15317;SDS011;7759;52.528;13.346;2023-08-01T01:23:49;3.90;;;2.00;;
15317;SDS011;7759;52.528;13.346;2023-08-01T01:26:15;2.28;;;1.70;;
15317;SDS011;7759;52.528;13.346;2023-08-01T01:28:45;2.58;;;2.00;;
15317;SDS011;7759;52.528;13.346;2023-08-01T01:31:11;2.30;;;1.55;;
15317;SDS011;7759;52.528;13.346;2023-08-01T01:33:37;3.25;;;2.00;;
15317;SDS011;7759;52.528;13.346;2023-08-01T01:36:03;2.92;;;2.20;;
15317;SDS011;7759;52.528;13.346;2023-08-01T01:38:29;4.10;;;2.08;;
15317;SDS011;7759;52.528;13.346;2023-08-01T01:40:55;2.92;;;1.90;;
15317;SDS011;7759;52.528;13.346;2023-08-01T01:43:20;3.08;;;1.90;;
15317;SDS011;7759;52.528;13.346;2023-08-01T01:45:46;2.78;;;2.10;;
15317;SDS011;7759;52.528;13.346;2023-08-01T01:48:12;4.25;;;2.33;;
15317;SDS011;7759;52.528;13.346;2023-08-01T01:50:38;2.65;;;1.55;;
15317;SDS011;7759;52.528;13.346;2023-08-01T01:53:04;3.13;;;1.80;;
15317;SDS011;7759;52.528;13.346;2023-08-01T01:55:30;4.55;;;2.00;;
15317;SDS011;7759;52.528;13.346;2023-08-01T01:57:56;3.70;;;2.20;;
15317;SDS011;7759;52.528;13.346;2023-08-01T02:00:22;3.50;;;2.25;;
15317;SDS011;7759;52.528;13.346;2023-08-01T02:02:47;4.82;;;2.45;;
15317;SDS011;7759;52.528;13.346;2023-08-01T02:05:13;2.90;;;1.73;;
15317;SDS011;7759;52.528;13.346;2023-08-01T02:07:39;2.85;;;1.85;;
15317;SDS011;7759;52.528;13.346;2023-08-01T02:10:05;3.08;;;1.42;;
15317;SDS011;7759;52.528;13.346;2023-08-01T02:12:31;2.75;;;1.95;;
15317;SDS011;7759;52.528;13.346;2023-08-01T02:14:59;3.17;;;2.05;;
15317;SDS011;7759;52.528;13.346;2023-08-01T02:17:25;3.53;;;2.03;;
15317;SDS011;7759;52.528;13.346;2023-08-01T02:19:51;2.58;;;2.10;;
15317;SDS011;7759;52.528;13.346;2023-08-01T02:22:17;3.78;;;2.10;;
15317;SDS011;7759;52.528;13.346;2023-08-01T02:24:43;2.83;;;2.03;;
15317;SDS011;7759;52.528;13.346;2023-08-01T02:27:09;5.18;;;2.15;;
15317;SDS011;7759;52.528;13.346;2023-08-01T02:29:35;3.88;;;2.33;;
15317;SDS011;7759;52.528;13.346;2023-08-01T02:32:01;2.88;;;2.05;;
15317;SDS011;7759;52.528;13.346;2023-08-01T02:34:27;3.05;;;2.40;;
15317;SDS011;7759;52.528;13.346;2023-08-01T02:36:53;4.80;;;2.28;;
15317;SDS011;7759;52.528;13.346;2023-08-01T02:39:19;2.80;;;2.15;;
15317;SDS011;7759;52.528;13.346;2023-08-01T02:41:45;3.28;;;2.00;;
15317;SDS011;7759;52.528;13.346;2023-08-01T02:44:10;3.10;;;1.98;;
15317;SDS011;7759;52.528;13.346;2023-08-01T02:46:37;3.63;;;2.10;;
15317;SDS011;7759;52.528;13.346;2023-08-01T02:49:03;4.68;;;2.13;;
15317;SDS011;7759;52.528;13.346;2023-08-01T02:51:29;2.63;;;2.00;;
15317;SDS011;7759;52.528;13.346;2023-08-01T02:53:55;3.88;;;1.95;;
15317;SDS011;7759;52.528;13.346;2023-08-01T02:56:21;2.90;;;2.05;;
15317;SDS011;7759;52.528;13.346;2023-08-01T02:58:47;3.15;;;2.45;;
15317;SDS011;7759;52.528;13.346;2023-08-01T03:01:13;3.30;;;2.30;;
15317;SDS011;7759;52.528;13.346;2023-08-01T03:03:39;4.18;;;2.38;;
15317;SDS011;7759;52.528;13.346;2023-08-01T03:06:05;4.75;;;2.65;;
15317;SDS011;7759;52.528;13.346;2023-08-01T03:08:31;4.65;;;2.65;;
15317;SDS011;7759;52.528;13.346;2023-08-01T03:10:57;5.80;;;2.33;;
15317;SDS011;7759;52.528;13.346;2023-08-01T03:13:23;3.83;;;2.13;;
15317;SDS011;7759;52.528;13.346;2023-08-01T03:15:49;3.92;;;2.10;;
15317;SDS011;7759;52.528;13.346;2023-08-01T03:18:15;3.38;;;2.65;;
15317;SDS011;7759;52.528;13.346;2023-08-01T03:20:41;3.45;;;2.05;;
15317;SDS011;7759;52.528;13.346;2023-08-01T03:23:07;4.00;;;2.35;;
15317;SDS011;7759;52.528;13.346;2023-08-01T03:25:33;5.68;;;2.17;;
15317;SDS011;7759;52.528;13.346;2023-08-01T03:27:58;3.72;;;2.00;;
15317;SDS011;7759;52.528;13.346;2023-08-01T03:30:24;5.43;;;2.47;;
15317;SDS011;7759;52.528;13.346;2023-08-01T03:32:51;4.35;;;2.42;;
15317;SDS011;7759;52.528;13.346;2023-08-01T03:35:17;3.42;;;1.83;;
15317;SDS011;7759;52.528;13.346;2023-08-01T03:37:43;4.43;;;2.58;;
15317;SDS011;7759;52.528;13.346;2023-08-01T03:40:09;3.50;;;2.35;;
15317;SDS011;7759;52.528;13.346;2023-08-01T03:42:35;2.85;;;2.28;;
15317;SDS011;7759;52.528;13.346;2023-08-01T03:45:01;5.80;;;2.60;;
15317;SDS011;7759;52.528;13.346;2023-08-01T03:47:27;3.45;;;2.35;;
15317;SDS011;7759;52.528;13.346;2023-08-01T03:49:53;3.97;;;2.33;;
15317;SDS011;7759;52.528;13.346;2023-08-01T03:52:19;2.65;;;2.33;;
15317;SDS011;7759;52.528;13.346;2023-08-01T03:54:45;4.60;;;2.88;;
15317;SDS011;7759;52.528;13.346;2023-08-01T03:57:11;4.88;;;2.60;;
15317;SDS011;7759;52.528;13.346;2023-08-01T03:59:37;2.25;;;2.05;;
15317;SDS011;7759;52.528;13.346;2023-08-01T04:02:03;3.83;;;2.25;;
15317;SDS011;7759;52.528;13.346;2023-08-01T04:04:29;3.08;;;2.03;;
15317;SDS011;7759;52.528;13.346;2023-08-01T04:06:56;3.30;;;2.22;;
15317;SDS011;7759;52.528;13.346;2023-08-01T04:09:22;2.85;;;1.95;;
15317;SDS011;7759;52.528;13.346;2023-08-01T04:11:48;3.00;;;2.00;;
15317;SDS011;7759;52.528;13.346;2023-08-01T04:14:14;2.53;;;1.95;;
15317;SDS011;7759;52.528;13.346;2023-08-01T04:16:39;3.53;;;2.30;;
15317;SDS011;7759;52.528;13.346;2023-08-01T04:19:05;4.60;;;2.30;;
15317;SDS011;7759;52.528;13.346;2023-08-01T04:21:31;4.10;;;2.17;;
15317;SDS011;7759;52.528;13.346;2023-08-01T04:23:57;4.28;;;2.30;;
15317;SDS011;7759;52.528;13.346;2023-08-01T04:26:23;4.25;;;2.20;;
15317;SDS011;7759;52.528;13.346;2023-08-01T04:28:49;2.67;;;1.95;;
15317;SDS011;7759;52.528;13.346;2023-08-01T04:31:15;2.67;;;1.80;;
15317;SDS011;7759;52.528;13.346;2023-08-01T04:33:41;2.95;;;1.88;;
15317;SDS011;7759;52.528;13.346;2023-08-01T04:36:07;3.05;;;2.03;;
15317;SDS011;7759;52.528;13.346;2023-08-01T04:38:32;2.20;;;2.00;;
15317;SDS011;7759;52.528;13.346;2023-08-01T04:40:58;3.50;;;2.33;;
15317;SDS011;7759;52.528;13.346;2023-08-01T04:43:25;2.70;;;1.70;;
15317;SDS011;7759;52.528;13.346;2023-08-01T04:45:51;2.22;;;1.83;;
15317;SDS011;7759;52.528;13.346;2023-08-01T04:48:16;2.85;;;1.88;;
15317;SDS011;7759;52.528;13.346;2023-08-01T04:50:42;3.47;;;1.80;;
15317;SDS011;7759;52.528;13.346;2023-08-01T04:53:08;3.50;;;2.30;;
15317;SDS011;7759;52.528;13.346;2023-08-01T04:55:36;2.35;;;2.05;;
15317;SDS011;7759;52.528;13.346;2023-08-01T04:58:01;3.17;;;2.28;;
15317;SDS011;7759;52.528;13.346;2023-08-01T05:00:27;3.92;;;1.85;;
15317;SDS011;7759;52.528;13.346;2023-08-01T05:02:53;2.83;;;1.52;;
15317;SDS011;7759;52.528;13.346;2023-08-01T05:05:19;2.97;;;1.70;;
15317;SDS011;7759;52.528;13.346;2023-08-01T05:07:45;2.53;;;1.60;;
15317;SDS011;7759;52.528;13.346;2023-08-01T05:10:11;3.45;;;1.75;;
15317;SDS011;7759;52.528;13.346;2023-08-01T05:12:37;2.60;;;1.95;;
15317;SDS011;7759;52.528;13.346;2023-08-01T05:15:03;2.00;;;1.63;;
15317;SDS011;7759;52.528;13.346;2023-08-01T05:17:29;3.38;;;1.80;;
15317;SDS011;7759;52.528;13.346;2023-08-01T05:19:55;3.92;;;1.90;;
15317;SDS011;7759;52.528;13.346;2023-08-01T05:22:21;2.65;;;1.90;;
15317;SDS011;7759;52.528;13.346;2023-08-01T05:24:46;3.83;;;1.85;;
15317;SDS011;7759;52.528;13.346;2023-08-01T05:27:12;2.38;;;1.90;;
15317;SDS011;7759;52.528;13.346;2023-08-01T05:29:38;4.53;;;1.80;;
15317;SDS011;7759;52.528;13.346;2023-08-01T05:32:04;3.08;;;2.13;;
15317;SDS011;7759;52.528;13.346;2023-08-01T05:34:30;2.28;;;1.65;;
15317;SDS011;7759;52.528;13.346;2023-08-01T05:36:56;3.35;;;1.90;;
15317;SDS011;7759;52.528;13.346;2023-08-01T05:39:22;2.78;;;1.83;;
15317;SDS011;7759;52.528;13.346;2023-08-01T05:41:48;3.50;;;1.80;;
15317;SDS011;7759;52.528;13.346;2023-08-01T05:44:15;2.35;;;1.88;;
15317;SDS011;7759;52.528;13.346;2023-08-01T05:46:41;5.32;;;1.90;;
15317;SDS011;7759;52.528;13.346;2023-08-01T05:49:07;2.85;;;1.98;;
15317;SDS011;7759;52.528;13.346;2023-08-01T05:51:33;3.75;;;1.60;;
15317;SDS011;7759;52.528;13.346;2023-08-01T05:53:58;3.25;;;1.80;;
15317;SDS011;7759;52.528;13.346;2023-08-01T05:56:24;4.13;;;3.08;;
15317;SDS011;7759;52.528;13.346;2023-08-01T05:58:50;3.30;;;2.17;;
15317;SDS011;7759;52.528;13.346;2023-08-01T06:01:16;2.63;;;1.88;;
15317;SDS011;7759;52.528;13.346;2023-08-01T06:03:42;2.65;;;1.90;;
15317;SDS011;7759;52.528;13.346;2023-08-01T06:06:08;1.98;;;1.58;;
15317;SDS011;7759;52.528;13.346;2023-08-01T06:08:34;3.67;;;2.10;;
15317;SDS011;7759;52.528;13.346;2023-08-01T06:11:00;4.55;;;2.83;;
15317;SDS011;7759;52.528;13.346;2023-08-01T06:13:26;3.85;;;2.47;;
15317;SDS011;7759;52.528;13.346;2023-08-01T06:15:52;2.90;;;2.13;;
15317;SDS011;7759;52.528;13.346;2023-08-01T06:18:18;5.95;;;2.22;;
15317;SDS011;7759;52.528;13.346;2023-08-01T06:20:43;4.13;;;2.47;;
15317;SDS011;7759;52.528;13.346;2023-08-01T06:23:09;5.78;;;1.85;;
15317;SDS011;7759;52.528;13.346;2023-08-01T06:25:35;4.00;;;2.00;;
15317;SDS011;7759;52.528;13.346;2023-08-01T06:28:01;3.28;;;1.75;;
15317;SDS011;7759;52.528;13.346;2023-08-01T06:30:27;3.70;;;2.05;;
15317;SDS011;7759;52.528;13.346;2023-08-01T06:32:53;4.68;;;2.35;;
15317;SDS011;7759;52.528;13.346;2023-08-01T06:35:19;2.60;;;2.10;;
15317;SDS011;7759;52.528;13.346;2023-08-01T06:37:46;2.78;;;1.80;;
15317;SDS011;7759;52.528;13.346;2023-08-01T06:40:11;2.55;;;1.80;;
15317;SDS011;7759;52.528;13.346;2023-08-01T06:42:37;1.95;;;1.77;;
15317;SDS011;7759;52.528;13.346;2023-08-01T06:45:04;3.60;;;1.95;;
15317;SDS011;7759;52.528;13.346;2023-08-01T06:47:30;2.92;;;1.70;;
15317;SDS011;7759;52.528;13.346;2023-08-01T06:49:55;2.72;;;1.98;;
15317;SDS011;7759;52.528;13.346;2023-08-01T06:52:21;2.60;;;1.98;;
15317;SDS011;7759;52.528;13.346;2023-08-01T06:54:47;4.00;;;2.33;;
15317;SDS011;7759;52.528;13.346;2023-08-01T06:57:13;3.10;;;1.80;;
15317;SDS011;7759;52.528;13.346;2023-08-01T06:59:39;2.63;;;2.00;;
15317;SDS011;7759;52.528;13.346;2023-08-01T07:02:05;3.47;;;1.80;;
15317;SDS011;7759;52.528;13.346;2023-08-01T07:04:32;2.10;;;1.90;;
15317;SDS011;7759;52.528;13.346;2023-08-01T07:06:59;4.13;;;1.90;;
15317;SDS011;7759;52.528;13.346;2023-08-01T07:09:25;2.22;;;1.60;;
15317;SDS011;7759;52.528;13.346;2023-08-01T07:11:51;3.55;;;1.70;;
15317;SDS011;7759;52.528;13.346;2023-08-01T07:14:16;2.55;;;2.00;;
15317;SDS011;7759;52.528;13.346;2023-08-01T07:16:42;4.38;;;1.98;;
15317;SDS011;7759;52.528;13.346;2023-08-01T07:19:09;2.90;;;1.83;;
15317;SDS011;7759;52.528;13.346;2023-08-01T07:21:35;2.85;;;1.88;;
15317;SDS011;7759;52.528;13.346;2023-08-01T07:24:01;4.05;;;1.80;;
15317;SDS011;7759;52.528;13.346;2023-08-01T07:26:27;2.03;;;1.73;;
15317;SDS011;7759;52.528;13.346;2023-08-01T07:28:54;2.90;;;1.77;;
15317;SDS011;7759;52.528;13.346;2023-08-01T07:31:20;7.20;;;1.90;;
15317;SDS011;7759;52.528;13.346;2023-08-01T07:33:46;2.95;;;1.67;;
15317;SDS011;7759;52.528;13.346;2023-08-01T07:36:12;2.17;;;1.65;;
15317;SDS011;7759;52.528;13.346;2023-08-01T07:38:38;2.00;;;1.45;;
15317;SDS011;7759;52.528;13.346;2023-08-01T07:41:04;2.15;;;1.77;;
15317;SDS011;7759;52.528;13.346;2023-08-01T07:43:30;2.70;;;1.77;;
15317;SDS011;7759;52.528;13.346;2023-08-01T07:45:57;1.95;;;1.60;;
15317;SDS011;7759;52.528;13.346;2023-08-01T07:48:22;1.67;;;1.55;;
15317;SDS011;7759;52.528;13.346;2023-08-01T07:50:48;3.53;;;2.20;;
15317;SDS011;7759;52.528;13.346;2023-08-01T07:53:14;2.75;;;1.73;;
15317;SDS011;7759;52.528;13.346;2023-08-01T07:55:40;2.83;;;1.60;;
15317;SDS011;7759;52.528;13.346;2023-08-01T07:58:06;1.90;;;1.50;;
15317;SDS011;7759;52.528;13.346;2023-08-01T08:00:34;2.13;;;1.75;;
15317;SDS011;7759;52.528;13.346;2023-08-01T08:03:00;2.25;;;1.45;;
15317;SDS011;7759;52.528;13.346;2023-08-01T08:05:25;2.13;;;1.65;;
15317;SDS011;7759;52.528;13.346;2023-08-01T08:07:51;2.85;;;1.58;;
15317;SDS011;7759;52.528;13.346;2023-08-01T08:10:17;2.15;;;1.40;;
15317;SDS011;7759;52.528;13.346;2023-08-01T08:12:43;3.70;;;1.65;;
15317;SDS011;7759;52.528;13.346;2023-08-01T08:15:09;3.03;;;1.83;;
15317;SDS011;7759;52.528;13.346;2023-08-01T08:17:35;1.77;;;1.20;;
15317;SDS011;7759;52.528;13.346;2023-08-01T08:20:02;2.10;;;1.52;;
15317;SDS011;7759;52.528;13.346;2023-08-01T08:22:28;1.80;;;1.55;;
15317;SDS011;7759;52.528;13.346;2023-08-01T08:24:54;1.52;;;1.30;;
15317;SDS011;7759;52.528;13.346;2023-08-01T08:27:20;2.45;;;1.15;;
15317;SDS011;7759;52.528;13.346;2023-08-01T08:29:46;2.22;;;1.50;;
15317;SDS011;7759;52.528;13.346;2023-08-01T08:32:12;1.83;;;1.30;;
15317;SDS011;7759;52.528;13.346;2023-08-01T08:34:37;2.88;;;1.77;;
15317;SDS011;7759;52.528;13.346;2023-08-01T08:37:04;3.35;;;1.45;;
15317;SDS011;7759;52.528;13.346;2023-08-01T08:39:30;1.27;;;1.17;;
15317;SDS011;7759;52.528;13.346;2023-08-01T08:41:57;1.83;;;1.20;;
15317;SDS011;7759;52.528;13.346;2023-08-01T08:44:23;2.65;;;1.50;;
15317;SDS011;7759;52.528;13.346;2023-08-01T08:46:55;1.60;;;1.48;;
15317;SDS011;7759;52.528;13.346;2023-08-01T08:49:23;1.30;;;1.20;;
15317;SDS011;7759;52.528;13.346;2023-08-01T08:51:51;1.55;;;1.20;;
15317;SDS011;7759;52.528;13.346;2023-08-01T08:54:17;1.52;;;1.35;;
15317;SDS011;7759;52.528;13.346;2023-08-01T08:56:44;2.20;;;1.30;;
15317;SDS011;7759;52.528;13.346;2023-08-01T08:59:10;1.48;;;1.35;;
15317;SDS011;7759;52.528;13.346;2023-08-01T09:01:36;3.05;;;1.38;;
15317;SDS011;7759;52.528;13.346;2023-08-01T09:04:03;1.58;;;1.17;;
15317;SDS011;7759;52.528;13.346;2023-08-01T09:06:32;1.98;;;1.20;;
15317;SDS011;7759;52.528;13.346;2023-08-01T09:09:04;2.50;;;1.38;;
15317;SDS011;7759;52.528;13.346;2023-08-01T09:11:38;2.22;;;1.40;;
15317;SDS011;7759;52.528;13.346;2023-08-01T09:14:04;2.25;;;1.27;;
15317;SDS011;7759;52.528;13.346;2023-08-01T09:16:32;2.20;;;1.40;;
15317;SDS011;7759;52.528;13.346;2023-08-01T09:18:58;1.05;;;0.95;;
15317;SDS011;7759;52.528;13.346;2023-08-01T09:21:24;1.40;;;1.08;;
15317;SDS011;7759;52.528;13.346;2023-08-01T09:23:50;1.27;;;1.10;;
15317;SDS011;7759;52.528;13.346;2023-08-01T09:26:17;1.15;;;1.05;;
15317;SDS011;7759;52.528;13.346;2023-08-01T09:28:43;1.35;;;1.10;;
15317;SDS011;7759;52.528;13.346;2023-08-01T09:31:10;1.15;;;1.05;;
15317;SDS011;7759;52.528;13.346;2023-08-01T09:33:39;1.25;;;1.15;;
15317;SDS011;7759;52.528;13.346;2023-08-01T09:36:06;2.25;;;1.00;;
15317;SDS011;7759;52.528;13.346;2023-08-01T09:38:35;1.17;;;1.10;;
15317;SDS011;7759;52.528;13.346;2023-08-01T09:41:02;3.20;;;1.20;;
15317;SDS011;7759;52.528;13.346;2023-08-01T09:43:34;1.38;;;1.10;;
15317;SDS011;7759;52.528;13.346;2023-08-01T09:46:00;1.30;;;1.00;;
15317;SDS011;7759;52.528;13.346;2023-08-01T09:48:27;1.25;;;1.13;;
15317;SDS011;7759;52.528;13.346;2023-08-01T09:51:06;1.15;;;1.05;;
15317;SDS011;7759;52.528;13.346;2023-08-01T09:53:32;0.80;;;0.75;;
15317;SDS011;7759;52.528;13.346;2023-08-01T09:56:01;0.85;;;0.77;;
15317;SDS011;7759;52.528;13.346;2023-08-01T09:58:32;0.80;;;0.70;;
15317;SDS011;7759;52.528;13.346;2023-08-01T10:00:59;1.02;;;0.80;;
15317;SDS011;7759;52.528;13.346;2023-08-01T10:03:26;1.70;;;1.08;;
15317;SDS011;7759;52.528;13.346;2023-08-01T10:05:52;1.15;;;1.00;;
15317;SDS011;7759;52.528;13.346;2023-08-01T10:08:19;1.17;;;1.10;;
15317;SDS011;7759;52.528;13.346;2023-08-01T10:10:46;2.42;;;1.70;;
15317;SDS011;7759;52.528;13.346;2023-08-01T10:13:13;3.83;;;0.88;;
15317;SDS011;7759;52.528;13.346;2023-08-01T10:15:39;1.15;;;1.00;;
15317;SDS011;7759;52.528;13.346;2023-08-01T10:18:05;0.77;;;0.70;;
15317;SDS011;7759;52.528;13.346;2023-08-01T10:20:31;0.90;;;0.90;;
15317;SDS011;7759;52.528;13.346;2023-08-01T10:22:58;2.22;;;1.17;;
15317;SDS011;7759;52.528;13.346;2023-08-01T10:25:24;0.93;;;0.85;;
15317;SDS011;7759;52.528;13.346;2023-08-01T10:27:58;0.90;;;0.70;;
15317;SDS011;7759;52.528;13.346;2023-08-01T10:30:27;1.77;;;0.90;;
15317;SDS011;7759;52.528;13.346;2023-08-01T10:32:57;1.65;;;0.98;;
15317;SDS011;7759;52.528;13.346;2023-08-01T10:35:36;1.10;;;0.80;;
15317;SDS011;7759;52.528;13.346;2023-08-01T10:38:05;0.95;;;0.85;;
15317;SDS011;7759;52.528;13.346;2023-08-01T10:40:35;1.98;;;1.25;;
15317;SDS011;7759;52.528;13.346;2023-08-01T10:43:01;1.65;;;1.10;;
15317;SDS011;7759;52.528;13.346;2023-08-01T10:45:27;1.45;;;1.10;;
15317;SDS011;7759;52.528;13.346;2023-08-01T10:47:54;1.77;;;1.13;;
15317;SDS011;7759;52.528;13.346;2023-08-01T10:50:20;1.30;;;0.88;;
15317;SDS011;7759;52.528;13.346;2023-08-01T10:52:46;1.60;;;0.95;;
15317;SDS011;7759;52.528;13.346;2023-08-01T10:55:13;1.75;;;1.17;;
15317;SDS011;7759;52.528;13.346;2023-08-01T10:57:40;1.63;;;1.00;;
15317;SDS011;7759;52.528;13.346;2023-08-01T11:00:15;2.67;;;1.00;;
15317;SDS011;7759;52.528;13.346;2023-08-01T11:02:41;1.20;;;1.10;;
15317;SDS011;7759;52.528;13.346;2023-08-01T11:05:07;1.05;;;0.80;;
15317;SDS011;7759;52.528;13.346;2023-08-01T11:07:33;1.10;;;0.82;;
15317;SDS011;7759;52.528;13.346;2023-08-01T11:12:28;2.20;;;0.80;;
15317;SDS011;7759;52.528;13.346;2023-08-01T11:14:58;1.00;;;0.90;;
15317;SDS011;7759;52.528;13.346;2023-08-01T11:17:25;0.85;;;0.63;;
15317;SDS011;7759;52.528;13.346;2023-08-01T11:19:50;1.30;;;1.08;;
15317;SDS011;7759;52.528;13.346;2023-08-01T11:22:16;2.75;;;1.48;;
15317;SDS011;7759;52.528;13.346;2023-08-01T11:24:49;2.47;;;1.40;;
15317;SDS011;7759;52.528;13.346;2023-08-01T11:27:15;1.33;;;0.90;;
15317;SDS011;7759;52.528;13.346;2023-08-01T11:29:41;1.25;;;1.15;;
15317;SDS011;7759;52.528;13.346;2023-08-01T11:32:08;1.83;;;1.33;;
15317;SDS011;7759;52.528;13.346;2023-08-01T11:34:40;1.58;;;1.42;;
15317;SDS011;7759;52.528;13.346;2023-08-01T11:37:08;1.67;;;1.10;;
15317;SDS011;7759;52.528;13.346;2023-08-01T11:39:34;2.50;;;1.83;;
15317;SDS011;7759;52.528;13.346;2023-08-01T11:42:00;1.20;;;1.10;;
15317;SDS011;7759;52.528;13.346;2023-08-01T11:44:26;1.77;;;1.48;;
15317;SDS011;7759;52.528;13.346;2023-08-01T11:46:52;3.53;;;1.73;;
15317;SDS011;7759;52.528;13.346;2023-08-01T11:49:18;3.05;;;2.42;;
15317;SDS011;7759;52.528;13.346;2023-08-01T11:51:44;2.10;;;1.58;;
15317;SDS011;7759;52.528;13.346;2023-08-01T11:54:11;4.25;;;2.90;;
15317;SDS011;7759;52.528;13.346;2023-08-01T11:56:38;2.08;;;1.50;;
15317;SDS011;7759;52.528;13.346;2023-08-01T11:59:11;4.55;;;2.03;;
15317;SDS011;7759;52.528;13.346;2023-08-01T12:01:41;2.38;;;1.52;;
15317;SDS011;7759;52.528;13.346;2023-08-01T12:04:07;2.00;;;1.50;;
15317;SDS011;7759;52.528;13.346;2023-08-01T12:06:33;2.70;;;2.10;;
15317;SDS011;7759;52.528;13.346;2023-08-01T12:09:10;2.38;;;2.13;;
15317;SDS011;7759;52.528;13.346;2023-08-01T12:11:36;3.83;;;2.00;;
15317;SDS011;7759;52.528;13.346;2023-08-01T12:16:28;1.98;;;1.77;;
15317;SDS011;7759;52.528;13.346;2023-08-01T12:18:54;4.85;;;3.63;;
15317;SDS011;7759;52.528;13.346;2023-08-01T12:21:20;3.40;;;2.28;;
15317;SDS011;7759;52.528;13.346;2023-08-01T12:23:46;2.33;;;2.03;;
15317;SDS011;7759;52.528;13.346;2023-08-01T12:26:11;1.88;;;1.67;;
15317;SDS011;7759;52.528;13.346;2023-08-01T12:28:37;2.17;;;1.63;;
15317;SDS011;7759;52.528;13.346;2023-08-01T12:31:03;2.67;;;1.95;;
15317;SDS011;7759;52.528;13.346;2023-08-01T12:33:29;3.05;;;1.73;;
15317;SDS011;7759;52.528;13.346;2023-08-01T12:35:56;4.35;;;2.28;;
15317;SDS011;7759;52.528;13.346;2023-08-01T12:38:21;3.28;;;2.17;;
15317;SDS011;7759;52.528;13.346;2023-08-01T12:40:47;3.72;;;2.22;;
15317;SDS011;7759;52.528;13.346;2023-08-01T12:43:14;3.35;;;1.77;;
15317;SDS011;7759;52.528;13.346;2023-08-01T12:45:41;2.13;;;1.88;;
15317;SDS011;7759;52.528;13.346;2023-08-01T12:48:07;2.85;;;2.05;;
15317;SDS011;7759;52.528;13.346;2023-08-01T12:50:33;1.77;;;1.67;;
15317;SDS011;7759;52.528;13.346;2023-08-01T12:52:59;3.83;;;2.28;;
15317;SDS011;7759;52.528;13.346;2023-08-01T12:55:25;3.47;;;1.90;;
15317;SDS011;7759;52.528;13.346;2023-08-01T12:57:51;3.28;;;2.15;;
15317;SDS011;7759;52.528;13.346;2023-08-01T13:00:17;3.78;;;2.28;;
15317;SDS011;7759;52.528;13.346;2023-08-01T13:02:43;2.83;;;1.92;;
15317;SDS011;7759;52.528;13.346;2023-08-01T13:05:09;2.83;;;1.90;;
15317;SDS011;7759;52.528;13.346;2023-08-01T13:07:35;3.00;;;1.80;;
15317;SDS011;7759;52.528;13.346;2023-08-01T13:10:01;3.40;;;2.30;;
15317;SDS011;7759;52.528;13.346;2023-08-01T13:12:27;2.47;;;1.70;;
15317;SDS011;7759;52.528;13.346;2023-08-01T13:14:53;2.45;;;2.10;;
15317;SDS011;7759;52.528;13.346;2023-08-01T13:17:19;2.47;;;1.40;;
15317;SDS011;7759;52.528;13.346;2023-08-01T13:19:45;2.60;;;2.03;;
15317;SDS011;7759;52.528;13.346;2023-08-01T13:22:11;6.53;;;2.22;;
15317;SDS011;7759;52.528;13.346;2023-08-01T13:24:37;4.53;;;2.00;;
15317;SDS011;7759;52.528;13.346;2023-08-01T13:27:04;2.72;;;2.00;;
15317;SDS011;7759;52.528;13.346;2023-08-01T13:29:30;3.05;;;1.90;;
15317;SDS011;7759;52.528;13.346;2023-08-01T13:31:56;2.17;;;1.70;;
15317;SDS011;7759;52.528;13.346;2023-08-01T13:34:21;4.40;;;2.65;;
15317;SDS011;7759;52.528;13.346;2023-08-01T13:36:49;5.63;;;2.25;;
15317;SDS011;7759;52.528;13.346;2023-08-01T13:39:15;2.10;;;1.90;;
15317;SDS011;7759;52.528;13.346;2023-08-01T13:41:40;2.08;;;1.77;;
15317;SDS011;7759;52.528;13.346;2023-08-01T13:44:07;2.47;;;1.88;;
15317;SDS011;7759;52.528;13.346;2023-08-01T13:46:33;2.28;;;1.77;;
15317;SDS011;7759;52.528;13.346;2023-08-01T13:48:59;3.47;;;1.90;;
15317;SDS011;7759;52.528;13.346;2023-08-01T13:51:25;4.18;;;1.95;;
15317;SDS011;7759;52.528;13.346;2023-08-01T13:53:51;3.33;;;2.00;;
15317;SDS011;7759;52.528;13.346;2023-08-01T13:56:17;3.45;;;2.10;;
15317;SDS011;7759;52.528;13.346;2023-08-01T13:58:43;2.67;;;2.10;;
15317;SDS011;7759;52.528;13.346;2023-08-01T14:01:09;2.60;;;1.70;;
15317;SDS011;7759;52.528;13.346;2023-08-01T14:03:36;2.92;;;2.17;;
15317;SDS011;7759;52.528;13.346;2023-08-01T14:08:31;2.10;;;1.50;;
15317;SDS011;7759;52.528;13.346;2023-08-01T14:10:57;5.50;;;2.33;;
15317;SDS011;7759;52.528;13.346;2023-08-01T14:13:23;2.60;;;2.20;;
15317;SDS011;7759;52.528;13.346;2023-08-01T14:15:49;2.95;;;2.33;;
15317;SDS011;7759;52.528;13.346;2023-08-01T14:18:16;4.70;;;2.30;;
15317;SDS011;7759;52.528;13.346;2023-08-01T14:20:42;11.57;;;2.10;;
15317;SDS011;7759;52.528;13.346;2023-08-01T14:23:08;2.50;;;1.80;;
15317;SDS011;7759;52.528;13.346;2023-08-01T14:25:34;2.10;;;1.90;;
15317;SDS011;7759;52.528;13.346;2023-08-01T14:28:00;2.03;;;1.70;;
15317;SDS011;7759;52.528;13.346;2023-08-01T14:30:26;2.65;;;1.88;;
15317;SDS011;7759;52.528;13.346;2023-08-01T14:33:02;2.22;;;2.03;;
15317;SDS011;7759;52.528;13.346;2023-08-01T14:35:29;3.53;;;2.00;;
15317;SDS011;7759;52.528;13.346;2023-08-01T14:37:55;2.65;;;1.88;;
15317;SDS011;7759;52.528;13.346;2023-08-01T14:40:21;2.92;;;1.80;;
15317;SDS011;7759;52.528;13.346;2023-08-01T14:42:47;3.80;;;1.60;;
15317;SDS011;7759;52.528;13.346;2023-08-01T14:45:13;2.17;;;1.70;;
15317;SDS011;7759;52.528;13.346;2023-08-01T14:47:39;2.33;;;1.80;;
15317;SDS011;7759;52.528;13.346;2023-08-01T14:50:05;3.33;;;1.50;;